createdAt,value
2022-09-26T00:01:43.585Z,7.43
2022-09-26T00:04:15.768Z,7.10
2022-09-26T00:06:43.932Z,8.33
2022-09-26T00:09:12.731Z,8.00
2022-09-26T00:11:41.550Z,8.10
2022-09-26T00:14:15.041Z,8.73
2022-09-26T00:16:43.312Z,9.27
2022-09-26T00:19:11.642Z,9.67
2022-09-26T00:21:40.232Z,9.37
2022-09-26T00:24:08.579Z,10.07
2022-09-26T00:26:38.206Z,11.00
2022-09-26T00:29:08.440Z,10.47
2022-09-26T00:31:41.224Z,10.57
2022-09-26T00:34:11.321Z,10.03
2022-09-26T00:36:39.623Z,9.23
2022-09-26T00:39:09.159Z,10.03
2022-09-26T00:41:41.532Z,9.67
2022-09-26T00:44:42.709Z,8.73
2022-09-26T00:47:33.884Z,9.00
2022-09-26T00:50:05.575Z,8.43
2022-09-26T00:52:37.730Z,9.33
2022-09-26T00:55:14.093Z,9.30
2022-09-26T00:57:46.611Z,9.03
2022-09-26T01:00:16.315Z,8.73
2022-09-26T01:02:48.091Z,9.10
2022-09-26T01:05:19.014Z,8.60
2022-09-26T01:07:47.859Z,9.03
2022-09-26T01:10:16.514Z,9.27
2022-09-26T01:12:44.896Z,9.47
2022-09-26T01:15:14.756Z,9.73
2022-09-26T01:17:46.775Z,10.43
2022-09-26T01:20:33.572Z,9.80
2022-09-26T01:23:37.987Z,10.00
2022-09-26T01:26:34.726Z,9.47
2022-09-26T01:29:43.077Z,9.57
2022-09-26T01:32:41.113Z,9.47
2022-09-26T01:35:16.107Z,9.73
2022-09-26T01:37:51.234Z,9.30
2022-09-26T01:40:27.408Z,9.43
2022-09-26T01:43:06.791Z,10.30
2022-09-26T01:45:45.264Z,10.27
2022-09-26T01:48:20.843Z,9.40
2022-09-26T01:50:54.501Z,9.10
2022-09-26T01:53:27.007Z,8.87
2022-09-26T01:56:07.721Z,9.70
2022-09-26T01:58:41.217Z,9.30
2022-09-26T02:01:13.688Z,8.87
2022-09-26T02:03:48.160Z,9.27
2022-09-26T02:06:22.115Z,9.73
2022-09-26T02:08:55.418Z,9.10
2022-09-26T02:11:25.615Z,9.10
2022-09-26T02:14:04.173Z,9.40
2022-09-26T02:16:38.471Z,9.33
2022-09-26T02:19:16.329Z,9.10
2022-09-26T02:21:45.258Z,9.00
2022-09-26T02:24:13.625Z,8.97
2022-09-26T02:26:43.222Z,8.80
2022-09-26T02:29:13.152Z,9.30
2022-09-26T02:31:48.558Z,8.17
2022-09-26T02:34:18.556Z,8.00
2022-09-26T02:36:46.750Z,7.37
2022-09-26T02:39:15.496Z,7.47
2022-09-26T02:41:52.336Z,8.47
2022-09-26T02:44:35.079Z,7.70
2022-09-26T02:47:27.644Z,7.30
2022-09-26T02:50:14.427Z,7.00
2022-09-26T02:52:52.394Z,7.03
2022-09-26T02:55:35.888Z,7.07
2022-09-26T02:58:10.578Z,6.80
2022-09-26T03:00:52.369Z,7.10
2022-09-26T03:03:26.913Z,6.87
2022-09-26T03:05:59.737Z,7.83
2022-09-26T03:08:30.272Z,7.40
2022-09-26T03:11:05.071Z,7.43
2022-09-26T03:13:36.519Z,7.50
2022-09-26T03:16:05.247Z,7.70
2022-09-26T03:18:39.683Z,7.30
2022-09-26T03:21:10.358Z,7.20
2022-09-26T03:23:39.601Z,7.23
2022-09-26T03:26:12.472Z,7.33
2022-09-26T03:28:50.265Z,7.10
2022-09-26T03:31:22.269Z,7.20
2022-09-26T03:34:00.377Z,7.10
2022-09-26T03:36:30.347Z,7.73
2022-09-26T03:38:58.568Z,8.07
2022-09-26T03:41:47.428Z,7.57
2022-09-26T03:44:27.362Z,7.27
2022-09-26T03:47:14.416Z,7.53
2022-09-26T03:49:44.994Z,7.77
2022-09-26T03:52:18.274Z,8.03
2022-09-26T03:54:46.882Z,8.63
2022-09-26T03:57:17.792Z,8.13
2022-09-26T03:59:51.359Z,8.00
2022-09-26T04:02:21.012Z,8.00
2022-09-26T04:04:56.111Z,8.33
2022-09-26T04:07:27.634Z,7.90
2022-09-26T04:09:58.954Z,7.70
2022-09-26T04:12:29.098Z,8.17
2022-09-26T04:14:57.300Z,7.30
2022-09-26T04:17:25.426Z,6.63
2022-09-26T04:19:53.635Z,6.80
2022-09-26T04:22:21.863Z,5.57
2022-09-26T04:24:51.737Z,4.40
2022-09-26T04:27:20.076Z,3.03
2022-09-26T04:29:48.429Z,2.80
2022-09-26T04:32:37.487Z,3.93
2022-09-26T04:35:25.394Z,5.53
2022-09-26T04:37:53.623Z,5.10
2022-09-26T04:40:23.447Z,5.90
2022-09-26T04:43:02.190Z,6.87
2022-09-26T04:45:30.166Z,5.93
2022-09-26T04:47:58.480Z,6.60
2022-09-26T04:50:26.946Z,6.30
2022-09-26T04:53:09.801Z,4.53
2022-09-26T04:55:46.619Z,4.73
2022-09-26T04:58:16.335Z,4.70
2022-09-26T05:00:45.391Z,5.53
2022-09-26T05:03:15.436Z,5.13
2022-09-26T05:05:45.106Z,3.00
2022-09-26T05:08:14.050Z,2.87
2022-09-26T05:10:42.371Z,3.20
2022-09-26T05:13:12.116Z,2.57
2022-09-26T05:15:41.643Z,2.40
2022-09-26T05:18:11.486Z,3.13
2022-09-26T05:20:40.876Z,2.70
2022-09-26T05:23:10.449Z,3.33
2022-09-26T05:25:57.896Z,3.40
2022-09-26T05:28:28.267Z,2.60
2022-09-26T05:30:56.885Z,2.50
2022-09-26T05:33:24.922Z,2.67
2022-09-26T05:35:54.760Z,2.97
2022-09-26T05:38:23.373Z,3.40
2022-09-26T05:40:56.650Z,3.77
2022-09-26T05:43:27.597Z,3.87
2022-09-26T05:46:00.922Z,3.17
2022-09-26T05:48:36.397Z,3.40
2022-09-26T05:51:09.913Z,3.17
2022-09-26T05:53:39.610Z,3.73
2022-09-26T05:56:09.098Z,3.90
2022-09-26T05:58:58.660Z,3.90
2022-09-26T06:01:46.874Z,4.47
2022-09-26T06:04:29.666Z,3.57
2022-09-26T06:07:16.176Z,2.50
2022-09-26T06:09:44.784Z,2.30
2022-09-26T06:12:20.204Z,3.40
2022-09-26T06:14:49.847Z,3.50
2022-09-26T06:17:17.902Z,4.27
2022-09-26T06:19:45.964Z,4.37
2022-09-26T06:22:13.963Z,4.73
2022-09-26T06:24:41.907Z,6.17
2022-09-26T06:27:13.343Z,6.00
2022-09-26T06:29:41.350Z,6.33
2022-09-26T06:32:10.861Z,6.40
2022-09-26T06:34:45.069Z,6.53
2022-09-26T06:37:37.149Z,6.57
2022-09-26T06:40:05.720Z,7.80
2022-09-26T06:42:37.963Z,6.97
2022-09-26T06:45:26.595Z,6.40
2022-09-26T06:48:24.574Z,6.83
2022-09-26T06:51:02.256Z,6.63
2022-09-26T06:53:31.868Z,6.47
2022-09-26T06:56:00.958Z,6.43
2022-09-26T06:58:29.504Z,5.87
2022-09-26T07:01:06.691Z,5.30
2022-09-26T07:04:17.204Z,4.90
2022-09-26T07:06:52.420Z,5.00
2022-09-26T07:09:20.712Z,5.23
2022-09-26T07:12:18.974Z,5.00
2022-09-26T07:14:51.431Z,4.20
2022-09-26T07:17:27.271Z,4.10
2022-09-26T07:20:08.209Z,4.23
2022-09-26T07:22:54.907Z,4.33
2022-09-26T07:25:23.249Z,4.07
2022-09-26T07:27:53.104Z,4.33
2022-09-26T07:30:26.466Z,4.17
2022-09-26T07:33:03.150Z,3.70
2022-09-26T07:35:39.541Z,3.77
2022-09-26T07:38:07.541Z,3.40
2022-09-26T07:40:35.706Z,3.20
2022-09-26T07:43:19.035Z,3.10
2022-09-26T07:46:09.796Z,2.90
2022-09-26T07:48:57.819Z,3.17
2022-09-26T07:51:46.197Z,2.27
2022-09-26T07:54:20.036Z,2.40
2022-09-26T07:56:57.251Z,2.30
2022-09-26T07:59:51.412Z,2.30
2022-09-26T08:02:38.459Z,2.50
2022-09-26T08:05:08.063Z,2.63
2022-09-26T08:07:38.167Z,2.40
2022-09-26T08:10:19.911Z,2.37
2022-09-26T08:13:23.456Z,2.73
2022-09-26T08:16:10.184Z,2.70
2022-09-26T08:18:42.439Z,2.63
2022-09-26T08:21:10.474Z,2.47
2022-09-26T08:23:40.896Z,2.70
2022-09-26T08:26:44.477Z,2.80
2022-09-26T08:29:34.988Z,2.63
2022-09-26T08:32:04.356Z,2.83
2022-09-26T08:34:35.305Z,2.47
2022-09-26T08:37:26.195Z,2.70
2022-09-26T08:40:18.735Z,2.93
2022-09-26T08:43:13.575Z,2.90
2022-09-26T08:46:25.836Z,2.67
2022-09-26T08:49:40.138Z,3.03
2022-09-26T08:52:24.753Z,2.30
2022-09-26T08:54:56.097Z,2.77
2022-09-26T08:57:34.844Z,2.80
2022-09-26T09:00:19.047Z,2.20
2022-09-26T09:03:03.295Z,2.60
2022-09-26T09:05:34.315Z,2.90
2022-09-26T09:08:10.149Z,2.80
2022-09-26T09:10:52.956Z,2.10
2022-09-26T09:13:41.232Z,2.50
2022-09-26T09:16:58.358Z,2.47
2022-09-26T09:19:57.067Z,2.40
2022-09-26T09:23:00.248Z,2.60
2022-09-26T09:25:33.896Z,2.30
2022-09-26T09:28:14.187Z,2.53
2022-09-26T09:30:49.333Z,2.50
2022-09-26T09:33:33.475Z,2.40
2022-09-26T09:36:21.943Z,2.33
2022-09-26T09:39:30.044Z,2.33
2022-09-26T09:42:07.804Z,2.37
2022-09-26T09:44:46.892Z,1.97
2022-09-26T09:47:19.288Z,2.20
2022-09-26T09:49:50.185Z,2.10
2022-09-26T09:52:32.386Z,2.20
2022-09-26T09:55:13.177Z,2.27
2022-09-26T09:58:00.214Z,1.90
2022-09-26T10:00:29.951Z,2.20
2022-09-26T10:03:26.112Z,1.97
2022-09-26T10:05:58.750Z,1.90
2022-09-26T10:08:42.624Z,1.80
2022-09-26T10:11:45.512Z,2.10
2022-09-26T10:14:28.792Z,1.77
2022-09-26T10:17:20.471Z,1.97
2022-09-26T10:20:40.797Z,2.10
2022-09-26T10:23:24.595Z,1.73
2022-09-26T10:25:59.939Z,1.70
2022-09-26T10:28:32.557Z,1.70
2022-09-26T10:31:05.209Z,1.90
2022-09-26T10:33:45.641Z,1.70
2022-09-26T10:36:22.269Z,2.00
2022-09-26T10:39:17.259Z,2.03
2022-09-26T10:41:50.879Z,2.23
2022-09-26T10:44:28.009Z,2.07
2022-09-26T10:47:13.578Z,2.43
2022-09-26T10:50:06.845Z,2.10
2022-09-26T10:52:58.633Z,2.00
2022-09-26T10:55:34.557Z,1.90
2022-09-26T10:58:13.517Z,1.60
2022-09-26T11:00:44.906Z,2.17
2022-09-26T11:03:23.744Z,2.10
2022-09-26T11:06:24.239Z,1.90
2022-09-26T11:09:02.981Z,2.00
2022-09-26T11:11:50.607Z,1.77
2022-09-26T11:14:29.081Z,2.23
2022-09-26T11:17:23.545Z,2.33
2022-09-26T11:19:57.517Z,2.40
2022-09-26T11:22:31.660Z,2.30
2022-09-26T11:25:08.256Z,2.23
2022-09-26T11:27:43.480Z,2.23
2022-09-26T11:30:19.461Z,2.45
2022-09-26T11:32:56.302Z,2.17
2022-09-26T11:35:53.494Z,2.30
2022-09-26T11:38:39.102Z,2.20
2022-09-26T11:41:39.581Z,2.30
2022-09-26T11:44:41.159Z,2.30
2022-09-26T11:47:56.443Z,2.07
2022-09-26T11:50:51.386Z,2.10
2022-09-26T11:53:53.495Z,2.10
2022-09-26T11:56:43.159Z,2.10
2022-09-26T11:59:30.263Z,2.43
2022-09-26T12:02:16.392Z,2.03
2022-09-26T12:05:04.003Z,1.93
2022-09-26T12:07:39.827Z,1.23
2022-09-26T12:10:26.208Z,1.20
2022-09-26T12:13:17.140Z,1.30
2022-09-26T12:15:53.527Z,1.40
2022-09-26T12:18:32.714Z,1.10
2022-09-26T12:21:17.073Z,1.23
2022-09-26T12:23:51.107Z,1.50
2022-09-26T12:26:27.369Z,1.50
2022-09-26T12:29:10.257Z,1.90
2022-09-26T12:31:52.237Z,1.90
2022-09-26T12:34:32.335Z,1.70
2022-09-26T12:37:14.424Z,1.50
2022-09-26T12:40:09.424Z,1.37
2022-09-26T12:42:54.515Z,1.47
2022-09-26T12:45:52.994Z,1.40
2022-09-26T12:48:39.028Z,1.23
2022-09-26T12:51:23.174Z,1.27
2022-09-26T12:54:17.279Z,1.40
2022-09-26T12:56:51.125Z,1.17
2022-09-26T12:59:39.782Z,1.23
2022-09-26T13:02:33.146Z,1.70
2022-09-26T13:05:19.663Z,1.60
2022-09-26T13:07:56.091Z,1.50
2022-09-26T13:10:38.557Z,1.40
2022-09-26T13:13:39.642Z,1.40
2022-09-26T13:16:20.128Z,1.20
2022-09-26T13:19:08.539Z,1.43
2022-09-26T13:22:16.727Z,1.50
2022-09-26T13:24:52.199Z,1.57
2022-09-26T13:27:34.534Z,1.80
2022-09-26T13:30:17.192Z,1.67
2022-09-26T13:32:59.973Z,1.80
2022-09-26T13:35:33.331Z,1.73
2022-09-26T13:38:56.552Z,1.80
2022-09-26T13:42:01.779Z,1.90
2022-09-26T13:44:54.797Z,1.73
2022-09-26T13:56:23.338Z,2.15
2022-09-26T13:59:08.717Z,2.00
2022-09-26T14:01:49.822Z,2.10
2022-09-26T14:04:46.215Z,1.70
2022-09-26T14:07:39.879Z,1.40
2022-09-26T14:10:20.584Z,1.60
2022-09-26T14:13:26.284Z,1.47
2022-09-26T14:16:59.521Z,1.70
2022-09-26T14:19:38.313Z,1.50
2022-09-26T14:22:33.133Z,1.30
2022-09-26T14:25:05.415Z,1.33
2022-09-26T14:27:49.097Z,1.30
2022-09-26T14:30:28.499Z,1.10
2022-09-26T14:33:15.280Z,1.40
2022-09-26T14:35:44.029Z,1.60
2022-09-26T14:38:17.848Z,1.20
2022-09-26T14:45:18.038Z,1.10
2022-09-26T14:48:59.230Z,1.40
2022-09-26T14:51:30.567Z,1.30
2022-09-26T14:54:02.607Z,1.27
2022-09-26T14:56:40.976Z,1.10
2022-09-26T14:59:29.269Z,1.30
2022-09-26T15:02:36.845Z,1.13
2022-09-26T15:05:14.690Z,1.17
2022-09-26T15:08:07.374Z,1.40
2022-09-26T15:10:43.389Z,1.30
2022-09-26T15:13:24.295Z,1.20
2022-09-26T15:16:00.860Z,1.10
2022-09-26T15:18:40.309Z,1.20
2022-09-26T15:21:22.283Z,1.33
2022-09-26T15:23:52.591Z,1.40
2022-09-26T15:26:23.608Z,1.20
2022-09-26T15:28:54.190Z,1.20
2022-09-26T15:31:36.896Z,1.10
2022-09-26T15:34:37.268Z,1.40
2022-09-26T15:37:20.986Z,1.20
2022-09-26T15:39:50.201Z,1.30
2022-09-26T15:43:17.105Z,1.30
2022-09-26T15:46:02.604Z,1.30
2022-09-26T15:48:34.525Z,1.00
2022-09-26T15:51:07.189Z,1.20
2022-09-26T15:53:41.601Z,1.37
2022-09-26T15:56:13.622Z,1.17
2022-09-26T15:58:47.894Z,1.23
2022-09-26T16:01:18.853Z,1.20
2022-09-26T16:03:55.889Z,1.30
2022-09-26T16:06:31.315Z,1.27
2022-09-26T16:09:07.794Z,2.07
2022-09-26T16:11:47.721Z,1.20
2022-09-26T16:14:26.742Z,1.30
2022-09-26T16:20:53.410Z,1.10
2022-09-26T16:24:23.002Z,1.30
2022-09-26T16:30:46.959Z,1.20
2022-09-26T16:34:16.455Z,1.33
2022-09-26T16:37:15.160Z,1.63
2022-09-26T16:39:59.590Z,1.47
2022-09-26T16:42:48.524Z,1.50
2022-09-26T16:45:24.197Z,1.30
2022-09-26T16:48:12.256Z,1.20
2022-09-26T16:51:00.765Z,1.33
2022-09-26T16:53:47.323Z,1.30
2022-09-26T16:56:22.807Z,1.53
2022-09-26T16:58:57.500Z,1.20
2022-09-26T17:01:55.868Z,1.30
2022-09-26T17:04:37.089Z,1.60
2022-09-26T17:07:24.209Z,1.20
2022-09-26T17:10:04.491Z,1.43
2022-09-26T17:13:04.484Z,1.20
2022-09-26T17:15:40.450Z,1.23
2022-09-26T17:18:22.327Z,1.20
2022-09-26T17:21:06.391Z,1.10
2022-09-26T17:23:43.754Z,1.00
2022-09-26T17:26:35.485Z,1.50
2022-09-26T17:29:06.221Z,1.13
2022-09-26T17:31:39.286Z,1.40
2022-09-26T17:34:14.614Z,1.40
2022-09-26T17:39:51.050Z,1.37
2022-09-26T17:42:48.515Z,1.70
2022-09-26T17:57:35.341Z,1.13
2022-09-26T18:00:58.209Z,1.70
2022-09-26T18:07:24.427Z,1.07
2022-09-26T18:09:55.581Z,1.60
2022-09-26T18:12:26.629Z,1.40
2022-09-26T18:14:57.416Z,1.50
2022-09-26T18:17:29.171Z,1.60
2022-09-26T18:20:14.713Z,1.43
2022-09-26T18:25:48.483Z,1.87
2022-09-26T18:28:27.951Z,1.73
2022-09-26T18:31:00.910Z,1.43
2022-09-26T18:33:37.888Z,1.90
2022-09-26T18:36:07.560Z,1.47
2022-09-26T18:38:39.185Z,1.50
2022-09-26T18:41:19.515Z,1.80
2022-09-26T18:43:52.293Z,1.70
2022-09-26T18:46:22.986Z,1.40
2022-09-26T18:49:20.423Z,1.50
2022-09-26T18:52:04.218Z,1.80
2022-09-26T18:54:37.220Z,1.60
2022-09-26T18:57:24.742Z,2.10
2022-09-26T18:59:54.283Z,1.47
2022-09-26T19:02:26.779Z,1.80
2022-09-26T19:04:58.900Z,1.83
2022-09-26T19:07:27.879Z,1.87
2022-09-26T19:10:05.456Z,1.90
2022-09-26T19:12:41.968Z,1.73
2022-09-26T19:16:02.404Z,1.93
2022-09-26T19:18:24.942Z,1.70
2022-09-26T19:20:56.190Z,1.70
2022-09-26T19:23:26.081Z,1.75
2022-09-26T19:26:09.113Z,1.70
2022-09-26T19:28:41.705Z,1.83
2022-09-26T19:31:47.624Z,1.87
2022-09-26T19:34:16.792Z,2.20
2022-09-26T19:36:55.745Z,2.10
2022-09-26T19:40:38.254Z,2.00
2022-09-26T19:43:23.292Z,1.77
2022-09-26T19:46:04.118Z,1.90
2022-09-26T19:48:38.964Z,1.90
2022-09-26T19:51:30.016Z,1.97
2022-09-26T19:54:25.035Z,2.20
2022-09-26T19:56:59.641Z,2.00
2022-09-26T19:59:32.246Z,2.00
2022-09-26T20:02:02.510Z,2.07
2022-09-26T20:04:37.248Z,1.83
2022-09-26T20:07:19.348Z,1.60
2022-09-26T20:09:51.101Z,1.70
2022-09-26T20:12:52.735Z,1.70
2022-09-26T20:15:35.489Z,1.63
2022-09-26T20:18:14.835Z,1.60
2022-09-26T20:21:07.129Z,2.00
2022-09-26T20:23:37.097Z,1.50
2022-09-26T20:26:13.087Z,1.50
2022-09-26T20:28:41.920Z,1.47
2022-09-26T20:31:20.638Z,1.70
2022-09-26T20:34:00.103Z,1.80
2022-09-26T20:36:32.155Z,1.43
2022-09-26T20:39:19.801Z,1.50
2022-09-26T20:42:09.826Z,1.50
2022-09-26T20:44:55.474Z,1.40
2022-09-26T20:47:25.746Z,1.60
2022-09-26T20:50:06.543Z,1.40
2022-09-26T20:52:38.030Z,1.30
2022-09-26T20:55:14.845Z,1.53
2022-09-26T20:57:43.530Z,1.23
2022-09-26T21:00:16.285Z,1.27
2022-09-26T21:02:46.755Z,1.50
2022-09-26T21:05:24.584Z,1.50
2022-09-26T21:08:11.161Z,1.50
2022-09-26T21:10:41.866Z,1.30
2022-09-26T21:16:27.989Z,1.43
2022-09-26T21:20:02.416Z,1.67
2022-09-26T21:23:13.709Z,1.50
2022-09-26T21:32:32.802Z,1.70
2022-09-26T21:36:23.519Z,1.90
2022-09-26T21:39:59.848Z,1.60
2022-09-26T21:43:13.464Z,1.63
2022-09-26T21:46:44.843Z,1.90
2022-09-26T21:49:54.928Z,1.93
2022-09-26T21:52:56.962Z,2.00
2022-09-26T21:56:07.345Z,2.50
2022-09-26T21:59:00.385Z,2.30
2022-09-26T22:01:54.928Z,1.70
2022-09-26T22:04:31.907Z,1.90
2022-09-26T22:07:14.683Z,1.90
2022-09-26T22:09:52.681Z,1.50
2022-09-26T22:12:24.861Z,1.60
2022-09-26T22:14:53.281Z,1.50
2022-09-26T22:17:21.565Z,1.60
2022-09-26T22:20:00.487Z,1.50
2022-09-26T22:22:38.239Z,1.80
2022-09-26T22:25:10.989Z,1.30
2022-09-26T22:27:55.349Z,1.43
2022-09-26T22:30:23.561Z,1.23
2022-09-26T22:32:54.803Z,1.30
2022-09-26T22:35:29.432Z,1.53
2022-09-26T22:38:11.198Z,1.37
2022-09-26T22:40:39.505Z,1.27
2022-09-26T22:43:09.360Z,1.30
2022-09-26T22:45:39.462Z,1.03
2022-09-26T22:48:07.686Z,1.03
2022-09-26T22:50:35.770Z,1.23
2022-09-26T22:53:03.831Z,1.30
2022-09-26T22:55:31.927Z,1.00
2022-09-26T22:58:00.009Z,1.20
2022-09-26T23:00:29.628Z,1.10
2022-09-26T23:03:01.119Z,1.13
2022-09-26T23:05:29.259Z,1.10
2022-09-26T23:07:57.390Z,0.90
2022-09-26T23:10:25.544Z,1.00
2022-09-26T23:12:53.795Z,1.00
2022-09-26T23:15:22.008Z,1.10
2022-09-26T23:17:54.688Z,1.00
2022-09-26T23:20:25.692Z,1.10
2022-09-26T23:22:56.013Z,1.20
2022-09-26T23:25:24.343Z,1.07
2022-09-26T23:27:52.363Z,1.20
2022-09-26T23:30:20.456Z,1.13
2022-09-26T23:32:49.292Z,1.10
2022-09-26T23:35:21.146Z,1.00
2022-09-26T23:37:49.275Z,1.00
2022-09-26T23:40:22.319Z,1.20
2022-09-26T23:42:50.542Z,1.17
2022-09-26T23:45:18.696Z,1.10
2022-09-26T23:47:46.843Z,1.10
2022-09-26T23:50:14.924Z,1.07
2022-09-26T23:52:48.831Z,0.77
2022-09-26T23:55:17.587Z,1.10
2022-09-26T23:57:45.856Z,1.10
